sensor_id;sensor_type;location;lat;lon;timestamp;temperature;humidity
2030;DHT22;1020;48.854;8.830;2023-01-15T00:01:53;10.10;99.90
2030;DHT22;1020;48.854;8.830;2023-01-15T00:04:21;10.00;99.90
2030;DHT22;1020;48.854;8.830;2023-01-15T00:06:47;10.00;99.90
2030;DHT22;1020;48.854;8.830;2023-01-15T00:09:15;10.00;99.90
2030;DHT22;1020;48.854;8.830;2023-01-15T00:11:42;10.20;62.10
2030;DHT22;1020;48.854;8.830;2023-01-15T00:14:09;10.20;1.00
2030;DHT22;1020;48.854;8.830;2023-01-15T00:16:36;10.10;1.90
2030;DHT22;1020;48.854;8.830;2023-01-15T00:19:05;10.10;1.00
2030;DHT22;1020;48.854;8.830;2023-01-15T00:21:36;10.30;1.00
2030;DHT22;1020;48.854;8.830;2023-01-15T00:24:04;10.20;1.00
2030;DHT22;1020;48.854;8.830;2023-01-15T00:26:48;10.20;1.00
2030;DHT22;1020;48.854;8.830;2023-01-15T00:29:33;10.20;1.00
2030;DHT22;1020;48.854;8.830;2023-01-15T00:32:02;10.30;99.90
2030;DHT22;1020;48.854;8.830;2023-01-15T00:34:29;10.30;99.90
2030;DHT22;1020;48.854;8.830;2023-01-15T00:36:57;10.30;99.90
2030;DHT22;1020;48.854;8.830;2023-01-15T00:39:24;10.30;99.90
2030;DHT22;1020;48.854;8.830;2023-01-15T00:41:52;10.30;99.90
2030;DHT22;1020;48.854;8.830;2023-01-15T00:44:19;10.30;99.90
2030;DHT22;1020;48.854;8.830;2023-01-15T00:46:46;10.30;99.90
2030;DHT22;1020;48.854;8.830;2023-01-15T00:49:13;10.40;99.90
2030;DHT22;1020;48.854;8.830;2023-01-15T00:51:40;10.40;99.90
2030;DHT22;1020;48.854;8.830;2023-01-15T00:54:08;10.20;99.90
2030;DHT22;1020;48.854;8.830;2023-01-15T00:56:35;10.20;99.90
2030;DHT22;1020;48.854;8.830;2023-01-15T00:59:02;10.20;99.90
2030;DHT22;1020;48.854;8.830;2023-01-15T01:01:29;10.60;99.90
2030;DHT22;1020;48.854;8.830;2023-01-15T01:03:56;10.20;99.90
2030;DHT22;1020;48.854;8.830;2023-01-15T01:06:23;10.30;99.90
2030;DHT22;1020;48.854;8.830;2023-01-15T01:08:50;10.30;99.90
2030;DHT22;1020;48.854;8.830;2023-01-15T01:11:20;10.30;1.00
2030;DHT22;1020;48.854;8.830;2023-01-15T01:13:48;10.40;1.00
2030;DHT22;1020;48.854;8.830;2023-01-15T01:16:22;10.40;1.00
2030;DHT22;1020;48.854;8.830;2023-01-15T01:18:50;10.50;1.00
2030;DHT22;1020;48.854;8.830;2023-01-15T01:21:17;10.50;99.90
2030;DHT22;1020;48.854;8.830;2023-01-15T01:23:44;11.30;99.90
2030;DHT22;1020;48.854;8.830;2023-01-15T01:26:11;10.50;99.90
2030;DHT22;1020;48.854;8.830;2023-01-15T01:28:39;10.90;99.90
2030;DHT22;1020;48.854;8.830;2023-01-15T01:31:07;10.60;99.90
2030;DHT22;1020;48.854;8.830;2023-01-15T01:33:34;10.60;99.90
2030;DHT22;1020;48.854;8.830;2023-01-15T01:36:01;10.60;99.90
2030;DHT22;1020;48.854;8.830;2023-01-15T01:38:28;10.60;99.90
2030;DHT22;1020;48.854;8.830;2023-01-15T01:40:55;10.60;99.90
2030;DHT22;1020;48.854;8.830;2023-01-15T01:43:23;10.50;1.00
2030;DHT22;1020;48.854;8.830;2023-01-15T01:45:52;10.50;1.00
2030;DHT22;1020;48.854;8.830;2023-01-15T01:48:21;10.50;1.00
2030;DHT22;1020;48.854;8.830;2023-01-15T01:50:50;10.50;1.00
2030;DHT22;1020;48.854;8.830;2023-01-15T01:53:20;10.50;1.00
2030;DHT22;1020;48.854;8.830;2023-01-15T01:55:48;10.60;1.00
2030;DHT22;1020;48.854;8.830;2023-01-15T01:58:16;10.50;1.00
2030;DHT22;1020;48.854;8.830;2023-01-15T02:00:47;10.40;99.90
2030;DHT22;1020;48.854;8.830;2023-01-15T02:03:17;10.40;99.90
2030;DHT22;1020;48.854;8.830;2023-01-15T02:05:49;10.40;1.00
2030;DHT22;1020;48.854;8.830;2023-01-15T02:08:17;10.40;1.00
2030;DHT22;1020;48.854;8.830;2023-01-15T02:10:44;10.30;1.00
2030;DHT22;1020;48.854;8.830;2023-01-15T02:13:22;10.40;1.00
2030;DHT22;1020;48.854;8.830;2023-01-15T02:15:56;10.30;22.90
2030;DHT22;1020;48.854;8.830;2023-01-15T02:18:30;10.40;99.90
2030;DHT22;1020;48.854;8.830;2023-01-15T02:21:00;10.30;99.90
2030;DHT22;1020;48.854;8.830;2023-01-15T02:23:49;10.40;99.90
2030;DHT22;1020;48.854;8.830;2023-01-15T02:29:18;10.30;99.90
2030;DHT22;1020;48.854;8.830;2023-01-15T02:31:49;10.30;1.00
2030;DHT22;1020;48.854;8.830;2023-01-15T02:34:21;10.30;1.00
2030;DHT22;1020;48.854;8.830;2023-01-15T02:36:59;10.20;1.00
2030;DHT22;1020;48.854;8.830;2023-01-15T02:39:28;10.10;1.00
2030;DHT22;1020;48.854;8.830;2023-01-15T02:41:59;10.20;1.00
2030;DHT22;1020;48.854;8.830;2023-01-15T02:44:30;10.20;1.00
2030;DHT22;1020;48.854;8.830;2023-01-15T02:46:58;10.20;1.00
2030;DHT22;1020;48.854;8.830;2023-01-15T02:49:26;10.20;1.00
2030;DHT22;1020;48.854;8.830;2023-01-15T02:51:58;10.30;1.00
2030;DHT22;1020;48.854;8.830;2023-01-15T02:54:29;10.20;1.00
2030;DHT22;1020;48.854;8.830;2023-01-15T02:56:59;10.20;1.00
2030;DHT22;1020;48.854;8.830;2023-01-15T02:59:33;10.20;1.00
2030;DHT22;1020;48.854;8.830;2023-01-15T03:02:04;10.20;1.00
2030;DHT22;1020;48.854;8.830;2023-01-15T03:04:34;10.20;1.00
2030;DHT22;1020;48.854;8.830;2023-01-15T03:07:06;10.30;1.00
2030;DHT22;1020;48.854;8.830;2023-01-15T03:09:35;10.30;1.00
2030;DHT22;1020;48.854;8.830;2023-01-15T03:12:07;10.40;1.00
2030;DHT22;1020;48.854;8.830;2023-01-15T03:14:41;10.40;1.00
2030;DHT22;1020;48.854;8.830;2023-01-15T03:17:13;10.40;1.00
2030;DHT22;1020;48.854;8.830;2023-01-15T03:19:46;10.40;1.00
2030;DHT22;1020;48.854;8.830;2023-01-15T03:22:18;10.40;1.00
2030;DHT22;1020;48.854;8.830;2023-01-15T03:24:49;10.50;1.00
2030;DHT22;1020;48.854;8.830;2023-01-15T03:27:17;10.40;1.00
2030;DHT22;1020;48.854;8.830;2023-01-15T03:29:48;10.50;99.90
2030;DHT22;1020;48.854;8.830;2023-01-15T03:32:17;10.50;99.90
2030;DHT22;1020;48.854;8.830;2023-01-15T03:34:47;10.60;99.90
2030;DHT22;1020;48.854;8.830;2023-01-15T03:37:15;10.50;99.90
2030;DHT22;1020;48.854;8.830;2023-01-15T03:39:42;10.60;99.90
2030;DHT22;1020;48.854;8.830;2023-01-15T03:42:17;10.60;99.90
2030;DHT22;1020;48.854;8.830;2023-01-15T03:44:53;10.60;99.90
2030;DHT22;1020;48.854;8.830;2023-01-15T03:47:32;10.70;99.90
2030;DHT22;1020;48.854;8.830;2023-01-15T03:50:05;10.60;99.90
2030;DHT22;1020;48.854;8.830;2023-01-15T03:52:41;10.50;99.90
2030;DHT22;1020;48.854;8.830;2023-01-15T03:55:13;10.50;1.00
2030;DHT22;1020;48.854;8.830;2023-01-15T03:57:45;10.60;99.90
2030;DHT22;1020;48.854;8.830;2023-01-15T04:00:20;10.40;1.00
2030;DHT22;1020;48.854;8.830;2023-01-15T04:02:50;10.50;1.00
2030;DHT22;1020;48.854;8.830;2023-01-15T04:05:18;10.40;1.00
2030;DHT22;1020;48.854;8.830;2023-01-15T04:07:47;10.50;1.00
2030;DHT22;1020;48.854;8.830;2023-01-15T04:10:15;10.50;99.90
2030;DHT22;1020;48.854;8.830;2023-01-15T04:12:42;10.50;1.00
2030;DHT22;1020;48.854;8.830;2023-01-15T04:15:10;10.50;1.00
2030;DHT22;1020;48.854;8.830;2023-01-15T04:17:38;10.50;1.00
2030;DHT22;1020;48.854;8.830;2023-01-15T04:20:06;10.50;1.00
2030;DHT22;1020;48.854;8.830;2023-01-15T04:22:33;10.50;1.00
2030;DHT22;1020;48.854;8.830;2023-01-15T04:25:00;10.50;1.00
2030;DHT22;1020;48.854;8.830;2023-01-15T04:27:27;10.50;1.00
2030;DHT22;1020;48.854;8.830;2023-01-15T04:29:54;10.40;1.00
2030;DHT22;1020;48.854;8.830;2023-01-15T04:32:21;10.40;1.00
2030;DHT22;1020;48.854;8.830;2023-01-15T04:34:49;10.40;1.00
2030;DHT22;1020;48.854;8.830;2023-01-15T04:37:16;10.40;1.00
2030;DHT22;1020;48.854;8.830;2023-01-15T04:39:43;10.40;1.00
2030;DHT22;1020;48.854;8.830;2023-01-15T04:42:11;10.40;1.00
2030;DHT22;1020;48.854;8.830;2023-01-15T04:44:56;10.40;1.00
2030;DHT22;1020;48.854;8.830;2023-01-15T04:47:23;10.40;1.00
2030;DHT22;1020;48.854;8.830;2023-01-15T04:49:51;10.10;1.00
2030;DHT22;1020;48.854;8.830;2023-01-15T04:52:18;9.40;99.90
2030;DHT22;1020;48.854;8.830;2023-01-15T04:54:45;8.90;99.90
2030;DHT22;1020;48.854;8.830;2023-01-15T04:57:11;8.40;99.90
2030;DHT22;1020;48.854;8.830;2023-01-15T04:59:38;7.90;99.90
2030;DHT22;1020;48.854;8.830;2023-01-15T05:02:05;7.70;99.90
2030;DHT22;1020;48.854;8.830;2023-01-15T05:04:32;7.40;99.90
2030;DHT22;1020;48.854;8.830;2023-01-15T05:07:01;7.30;99.90
2030;DHT22;1020;48.854;8.830;2023-01-15T05:09:28;7.10;99.90
2030;DHT22;1020;48.854;8.830;2023-01-15T05:11:55;7.10;99.90
2030;DHT22;1020;48.854;8.830;2023-01-15T05:14:22;7.00;99.90
2030;DHT22;1020;48.854;8.830;2023-01-15T05:16:48;7.00;99.90
2030;DHT22;1020;48.854;8.830;2023-01-15T05:19:15;6.90;99.90
2030;DHT22;1020;48.854;8.830;2023-01-15T05:21:43;6.80;99.90
2030;DHT22;1020;48.854;8.830;2023-01-15T05:24:13;6.70;99.90
2030;DHT22;1020;48.854;8.830;2023-01-15T05:26:40;6.70;99.90
2030;DHT22;1020;48.854;8.830;2023-01-15T05:29:07;6.70;99.90
2030;DHT22;1020;48.854;8.830;2023-01-15T05:31:34;6.70;99.90
2030;DHT22;1020;48.854;8.830;2023-01-15T05:34:01;6.60;99.90
2030;DHT22;1020;48.854;8.830;2023-01-15T05:36:29;6.60;99.90
2030;DHT22;1020;48.854;8.830;2023-01-15T05:38:57;6.50;99.90
2030;DHT22;1020;48.854;8.830;2023-01-15T05:41:27;6.50;99.90
2030;DHT22;1020;48.854;8.830;2023-01-15T05:44:12;6.50;99.90
2030;DHT22;1020;48.854;8.830;2023-01-15T05:46:41;6.40;99.90
2030;DHT22;1020;48.854;8.830;2023-01-15T05:49:09;6.40;99.90
2030;DHT22;1020;48.854;8.830;2023-01-15T05:51:37;6.30;99.90
2030;DHT22;1020;48.854;8.830;2023-01-15T05:54:05;6.30;99.90
2030;DHT22;1020;48.854;8.830;2023-01-15T05:56:35;8.30;99.90
2030;DHT22;1020;48.854;8.830;2023-01-15T05:59:03;6.20;99.90
2030;DHT22;1020;48.854;8.830;2023-01-15T06:01:30;6.10;99.90
2030;DHT22;1020;48.854;8.830;2023-01-15T06:03:57;6.00;99.90
2030;DHT22;1020;48.854;8.830;2023-01-15T06:06:24;5.90;99.90
2030;DHT22;1020;48.854;8.830;2023-01-15T06:08:51;5.80;99.90
2030;DHT22;1020;48.854;8.830;2023-01-15T06:11:18;5.80;99.90
2030;DHT22;1020;48.854;8.830;2023-01-15T06:13:46;5.80;99.90
2030;DHT22;1020;48.854;8.830;2023-01-15T06:16:13;5.70;99.90
2030;DHT22;1020;48.854;8.830;2023-01-15T06:18:40;5.70;99.90
2030;DHT22;1020;48.854;8.830;2023-01-15T06:21:10;5.60;99.90
2030;DHT22;1020;48.854;8.830;2023-01-15T06:23:38;5.60;99.90
2030;DHT22;1020;48.854;8.830;2023-01-15T06:26:06;5.60;99.90
2030;DHT22;1020;48.854;8.830;2023-01-15T06:28:33;5.50;99.90
2030;DHT22;1020;48.854;8.830;2023-01-15T06:31:05;5.50;99.90
2030;DHT22;1020;48.854;8.830;2023-01-15T06:33:31;5.40;99.90
2030;DHT22;1020;48.854;8.830;2023-01-15T06:36:02;5.40;99.90
2030;DHT22;1020;48.854;8.830;2023-01-15T06:38:28;5.30;99.90
2030;DHT22;1020;48.854;8.830;2023-01-15T06:40:57;5.20;99.90
2030;DHT22;1020;48.854;8.830;2023-01-15T06:43:24;5.20;99.90
2030;DHT22;1020;48.854;8.830;2023-01-15T06:46:10;5.10;99.90
2030;DHT22;1020;48.854;8.830;2023-01-15T06:48:53;5.10;99.90
2030;DHT22;1020;48.854;8.830;2023-01-15T06:51:20;5.00;99.90
2030;DHT22;1020;48.854;8.830;2023-01-15T06:53:47;5.00;99.90
2030;DHT22;1020;48.854;8.830;2023-01-15T06:56:14;5.00;99.90
2030;DHT22;1020;48.854;8.830;2023-01-15T06:58:41;4.90;99.90
2030;DHT22;1020;48.854;8.830;2023-01-15T07:01:11;4.90;99.90
2030;DHT22;1020;48.854;8.830;2023-01-15T07:03:38;4.80;99.90
2030;DHT22;1020;48.854;8.830;2023-01-15T07:06:06;4.70;99.90
2030;DHT22;1020;48.854;8.830;2023-01-15T07:08:33;4.70;99.90
2030;DHT22;1020;48.854;8.830;2023-01-15T07:11:04;4.70;99.90
2030;DHT22;1020;48.854;8.830;2023-01-15T07:13:31;4.60;99.90
2030;DHT22;1020;48.854;8.830;2023-01-15T07:15:59;4.60;99.90
2030;DHT22;1020;48.854;8.830;2023-01-15T07:18:29;4.60;99.90
2030;DHT22;1020;48.854;8.830;2023-01-15T07:20:56;4.60;99.90
2030;DHT22;1020;48.854;8.830;2023-01-15T07:23:24;4.60;99.90
2030;DHT22;1020;48.854;8.830;2023-01-15T07:25:52;4.50;99.90
2030;DHT22;1020;48.854;8.830;2023-01-15T07:28:19;4.60;99.90
2030;DHT22;1020;48.854;8.830;2023-01-15T07:30:46;4.50;99.90
2030;DHT22;1020;48.854;8.830;2023-01-15T07:33:13;4.50;99.90
2030;DHT22;1020;48.854;8.830;2023-01-15T07:35:41;4.50;99.90
2030;DHT22;1020;48.854;8.830;2023-01-15T07:38:07;4.50;99.90
2030;DHT22;1020;48.854;8.830;2023-01-15T07:40:34;4.50;99.90
2030;DHT22;1020;48.854;8.830;2023-01-15T07:43:02;4.50;99.90
2030;DHT22;1020;48.854;8.830;2023-01-15T07:45:47;4.50;99.90
2030;DHT22;1020;48.854;8.830;2023-01-15T07:48:31;4.50;99.90
2030;DHT22;1020;48.854;8.830;2023-01-15T07:51:16;4.50;99.90
2030;DHT22;1020;48.854;8.830;2023-01-15T07:53:42;4.50;99.90
2030;DHT22;1020;48.854;8.830;2023-01-15T07:56:09;4.50;99.90
2030;DHT22;1020;48.854;8.830;2023-01-15T07:58:36;4.50;99.90
2030;DHT22;1020;48.854;8.830;2023-01-15T08:01:03;4.50;99.90
2030;DHT22;1020;48.854;8.830;2023-01-15T08:03:30;4.50;99.90
2030;DHT22;1020;48.854;8.830;2023-01-15T08:05:56;4.50;99.90
2030;DHT22;1020;48.854;8.830;2023-01-15T08:08:25;4.50;99.90
2030;DHT22;1020;48.854;8.830;2023-01-15T08:10:51;4.40;99.90
2030;DHT22;1020;48.854;8.830;2023-01-15T08:13:35;4.40;99.90
2030;DHT22;1020;48.854;8.830;2023-01-15T08:16:20;4.40;99.90
2030;DHT22;1020;48.854;8.830;2023-01-15T08:18:46;4.30;99.90
2030;DHT22;1020;48.854;8.830;2023-01-15T08:21:13;4.30;99.90
2030;DHT22;1020;48.854;8.830;2023-01-15T08:23:42;4.30;99.90
2030;DHT22;1020;48.854;8.830;2023-01-15T08:26:11;4.30;99.90
2030;DHT22;1020;48.854;8.830;2023-01-15T08:28:38;4.20;99.90
2030;DHT22;1020;48.854;8.830;2023-01-15T08:31:05;4.20;99.90
2030;DHT22;1020;48.854;8.830;2023-01-15T08:33:33;4.10;99.90
2030;DHT22;1020;48.854;8.830;2023-01-15T08:35:59;4.10;99.90
2030;DHT22;1020;48.854;8.830;2023-01-15T08:38:26;4.10;99.90
2030;DHT22;1020;48.854;8.830;2023-01-15T08:40:54;4.10;99.90
2030;DHT22;1020;48.854;8.830;2023-01-15T08:43:24;4.00;99.90
2030;DHT22;1020;48.854;8.830;2023-01-15T08:45:51;4.00;99.90
2030;DHT22;1020;48.854;8.830;2023-01-15T08:48:18;4.00;99.90
2030;DHT22;1020;48.854;8.830;2023-01-15T08:50:44;4.00;99.90
2030;DHT22;1020;48.854;8.830;2023-01-15T08:53:11;4.00;99.90
2030;DHT22;1020;48.854;8.830;2023-01-15T08:55:38;4.00;99.90
2030;DHT22;1020;48.854;8.830;2023-01-15T08:58:06;4.00;99.90
2030;DHT22;1020;48.854;8.830;2023-01-15T09:00:33;3.90;99.90
2030;DHT22;1020;48.854;8.830;2023-01-15T09:03:00;4.00;99.90
2030;DHT22;1020;48.854;8.830;2023-01-15T09:05:26;3.90;99.90
2030;DHT22;1020;48.854;8.830;2023-01-15T09:07:53;4.00;99.90
2030;DHT22;1020;48.854;8.830;2023-01-15T09:10:21;4.00;99.90
2030;DHT22;1020;48.854;8.830;2023-01-15T09:12:48;4.00;99.90
2030;DHT22;1020;48.854;8.830;2023-01-15T09:15:16;3.90;99.90
2030;DHT22;1020;48.854;8.830;2023-01-15T09:17:43;3.90;99.90
2030;DHT22;1020;48.854;8.830;2023-01-15T09:20:12;3.90;99.90
2030;DHT22;1020;48.854;8.830;2023-01-15T09:22:39;4.00;99.90
2030;DHT22;1020;48.854;8.830;2023-01-15T09:25:07;4.00;99.90
2030;DHT22;1020;48.854;8.830;2023-01-15T09:27:33;4.00;99.90
2030;DHT22;1020;48.854;8.830;2023-01-15T09:30:03;3.90;99.90
2030;DHT22;1020;48.854;8.830;2023-01-15T09:32:32;3.90;99.90
2030;DHT22;1020;48.854;8.830;2023-01-15T09:34:59;3.90;99.90
2030;DHT22;1020;48.854;8.830;2023-01-15T09:37:26;3.90;99.90
2030;DHT22;1020;48.854;8.830;2023-01-15T09:39:53;3.80;99.90
2030;DHT22;1020;48.854;8.830;2023-01-15T09:42:31;3.70;99.90
2030;DHT22;1020;48.854;8.830;2023-01-15T09:45:17;3.60;99.90
2030;DHT22;1020;48.854;8.830;2023-01-15T09:48:02;3.60;99.90
2030;DHT22;1020;48.854;8.830;2023-01-15T09:50:39;3.60;99.90
2030;DHT22;1020;48.854;8.830;2023-01-15T09:53:35;3.50;99.90
2030;DHT22;1020;48.854;8.830;2023-01-15T09:56:03;3.50;99.90
2030;DHT22;1020;48.854;8.830;2023-01-15T09:58:32;3.50;99.90
2030;DHT22;1020;48.854;8.830;2023-01-15T10:00:59;3.40;99.90
2030;DHT22;1020;48.854;8.830;2023-01-15T10:03:32;3.40;99.90
2030;DHT22;1020;48.854;8.830;2023-01-15T10:06:08;3.40;99.90
2030;DHT22;1020;48.854;8.830;2023-01-15T10:08:42;3.30;99.90
2030;DHT22;1020;48.854;8.830;2023-01-15T10:11:33;3.30;99.90
2030;DHT22;1020;48.854;8.830;2023-01-15T10:14:42;3.20;99.90
2030;DHT22;1020;48.854;8.830;2023-01-15T10:17:18;3.10;99.90
2030;DHT22;1020;48.854;8.830;2023-01-15T10:19:48;3.00;99.90
2030;DHT22;1020;48.854;8.830;2023-01-15T10:22:24;3.00;99.90
2030;DHT22;1020;48.854;8.830;2023-01-15T10:24:56;2.90;99.90
2030;DHT22;1020;48.854;8.830;2023-01-15T10:27:25;2.80;99.90
2030;DHT22;1020;48.854;8.830;2023-01-15T10:29:57;2.80;99.90
2030;DHT22;1020;48.854;8.830;2023-01-15T10:32:37;2.70;99.90
2030;DHT22;1020;48.854;8.830;2023-01-15T10:35:22;2.60;99.90
2030;DHT22;1020;48.854;8.830;2023-01-15T10:37:55;2.40;99.90
2030;DHT22;1020;48.854;8.830;2023-01-15T10:40:43;2.40;99.90
2030;DHT22;1020;48.854;8.830;2023-01-15T10:43:17;2.30;99.90
2030;DHT22;1020;48.854;8.830;2023-01-15T10:45:48;2.20;99.90
2030;DHT22;1020;48.854;8.830;2023-01-15T10:48:23;2.20;99.90
2030;DHT22;1020;48.854;8.830;2023-01-15T10:50:53;2.30;99.90
2030;DHT22;1020;48.854;8.830;2023-01-15T10:53:29;2.20;99.90
2030;DHT22;1020;48.854;8.830;2023-01-15T10:55:59;2.20;99.90
2030;DHT22;1020;48.854;8.830;2023-01-15T10:58:33;2.20;99.90
2030;DHT22;1020;48.854;8.830;2023-01-15T11:01:04;3.90;99.90
2030;DHT22;1020;48.854;8.830;2023-01-15T11:03:35;2.00;99.90
2030;DHT22;1020;48.854;8.830;2023-01-15T11:06:06;2.10;99.90
2030;DHT22;1020;48.854;8.830;2023-01-15T11:08:39;2.40;99.90
2030;DHT22;1020;48.854;8.830;2023-01-15T11:11:17;2.10;99.90
2030;DHT22;1020;48.854;8.830;2023-01-15T11:13:52;2.10;99.90
2030;DHT22;1020;48.854;8.830;2023-01-15T11:16:37;2.00;99.90
2030;DHT22;1020;48.854;8.830;2023-01-15T11:19:26;2.00;99.90
2030;DHT22;1020;48.854;8.830;2023-01-15T11:22:11;2.00;99.90
2030;DHT22;1020;48.854;8.830;2023-01-15T11:24:45;1.90;99.90
2030;DHT22;1020;48.854;8.830;2023-01-15T11:27:15;1.90;99.90
2030;DHT22;1020;48.854;8.830;2023-01-15T11:29:44;2.00;99.90
2030;DHT22;1020;48.854;8.830;2023-01-15T11:32:25;2.00;99.90
2030;DHT22;1020;48.854;8.830;2023-01-15T11:34:54;1.90;99.90
2030;DHT22;1020;48.854;8.830;2023-01-15T11:37:23;2.00;99.90
2030;DHT22;1020;48.854;8.830;2023-01-15T11:39:54;2.20;99.90
2030;DHT22;1020;48.854;8.830;2023-01-15T11:42:21;2.00;99.90
2030;DHT22;1020;48.854;8.830;2023-01-15T11:45:12;2.00;99.90
2030;DHT22;1020;48.854;8.830;2023-01-15T11:47:57;2.00;99.90
2030;DHT22;1020;48.854;8.830;2023-01-15T11:50:49;2.00;99.90
2030;DHT22;1020;48.854;8.830;2023-01-15T11:53:22;2.10;99.90
2030;DHT22;1020;48.854;8.830;2023-01-15T11:55:52;2.10;99.90
2030;DHT22;1020;48.854;8.830;2023-01-15T11:58:20;2.20;99.90
2030;DHT22;1020;48.854;8.830;2023-01-15T12:00:50;2.20;99.90
2030;DHT22;1020;48.854;8.830;2023-01-15T12:03:19;1.10;99.90
2030;DHT22;1020;48.854;8.830;2023-01-15T12:05:54;2.20;99.90
2030;DHT22;1020;48.854;8.830;2023-01-15T12:08:32;2.30;99.90
2030;DHT22;1020;48.854;8.830;2023-01-15T12:11:10;2.30;99.90
2030;DHT22;1020;48.854;8.830;2023-01-15T12:13:47;2.40;99.90
2030;DHT22;1020;48.854;8.830;2023-01-15T12:16:23;2.40;99.90
2030;DHT22;1020;48.854;8.830;2023-01-15T12:18:57;2.50;99.90
2030;DHT22;1020;48.854;8.830;2023-01-15T12:21:50;2.50;99.90
2030;DHT22;1020;48.854;8.830;2023-01-15T12:24:45;2.50;99.90
2030;DHT22;1020;48.854;8.830;2023-01-15T12:27:28;2.60;99.90
2030;DHT22;1020;48.854;8.830;2023-01-15T12:30:01;2.60;99.90
2030;DHT22;1020;48.854;8.830;2023-01-15T12:32:34;2.70;99.90
2030;DHT22;1020;48.854;8.830;2023-01-15T12:35:06;2.80;99.90
2030;DHT22;1020;48.854;8.830;2023-01-15T12:37:43;2.80;99.90
2030;DHT22;1020;48.854;8.830;2023-01-15T12:40:18;2.90;99.90
2030;DHT22;1020;48.854;8.830;2023-01-15T12:42:49;2.90;99.90
2030;DHT22;1020;48.854;8.830;2023-01-15T12:45:37;3.00;99.90
2030;DHT22;1020;48.854;8.830;2023-01-15T12:48:11;3.10;99.90
2030;DHT22;1020;48.854;8.830;2023-01-15T12:50:41;3.20;99.90
2030;DHT22;1020;48.854;8.830;2023-01-15T12:53:13;3.20;99.90
2030;DHT22;1020;48.854;8.830;2023-01-15T12:55:47;3.20;99.90
2030;DHT22;1020;48.854;8.830;2023-01-15T12:58:36;3.30;99.90
2030;DHT22;1020;48.854;8.830;2023-01-15T13:01:12;3.30;99.90
2030;DHT22;1020;48.854;8.830;2023-01-15T13:03:59;3.40;99.90
2030;DHT22;1020;48.854;8.830;2023-01-15T13:06:27;3.30;99.90
2030;DHT22;1020;48.854;8.830;2023-01-15T13:08:59;3.30;99.90
2030;DHT22;1020;48.854;8.830;2023-01-15T13:11:28;3.40;99.90
2030;DHT22;1020;48.854;8.830;2023-01-15T13:13:55;3.40;99.90
2030;DHT22;1020;48.854;8.830;2023-01-15T13:16:40;3.40;99.90
2030;DHT22;1020;48.854;8.830;2023-01-15T13:19:36;3.40;94.50
2030;DHT22;1020;48.854;8.830;2023-01-15T13:22:08;3.70;99.90
2030;DHT22;1020;48.854;8.830;2023-01-15T13:24:58;4.30;37.00
2030;DHT22;1020;48.854;8.830;2023-01-15T13:27:42;4.50;38.10
2030;DHT22;1020;48.854;8.830;2023-01-15T13:30:25;4.60;1.00
2030;DHT22;1020;48.854;8.830;2023-01-15T13:32:57;4.40;1.00
2030;DHT22;1020;48.854;8.830;2023-01-15T13:35:29;4.40;1.00
2030;DHT22;1020;48.854;8.830;2023-01-15T13:37:58;4.40;1.00
2030;DHT22;1020;48.854;8.830;2023-01-15T13:40:29;4.30;1.00
2030;DHT22;1020;48.854;8.830;2023-01-15T13:43:01;4.50;1.00
2030;DHT22;1020;48.854;8.830;2023-01-15T13:45:33;4.50;1.00
2030;DHT22;1020;48.854;8.830;2023-01-15T13:48:05;4.90;1.00
2030;DHT22;1020;48.854;8.830;2023-01-15T13:50:34;5.10;1.00
2030;DHT22;1020;48.854;8.830;2023-01-15T13:53:05;5.40;1.00
2030;DHT22;1020;48.854;8.830;2023-01-15T13:55:33;5.30;1.00
2030;DHT22;1020;48.854;8.830;2023-01-15T13:58:16;5.30;1.00
2030;DHT22;1020;48.854;8.830;2023-01-15T14:00:43;4.90;1.00
2030;DHT22;1020;48.854;8.830;2023-01-15T14:03:24;4.70;1.00
2030;DHT22;1020;48.854;8.830;2023-01-15T14:05:54;4.70;1.00
2030;DHT22;1020;48.854;8.830;2023-01-15T14:08:27;4.90;1.00
2030;DHT22;1020;48.854;8.830;2023-01-15T14:10:54;5.10;1.00
2030;DHT22;1020;48.854;8.830;2023-01-15T14:16:35;5.40;1.00
2030;DHT22;1020;48.854;8.830;2023-01-15T14:19:26;5.50;99.90
2030;DHT22;1020;48.854;8.830;2023-01-15T14:22:06;5.30;1.00
2030;DHT22;1020;48.854;8.830;2023-01-15T14:24:49;5.10;1.00
2030;DHT22;1020;48.854;8.830;2023-01-15T14:27:36;4.90;99.90
2030;DHT22;1020;48.854;8.830;2023-01-15T14:30:31;5.00;1.00
2030;DHT22;1020;48.854;8.830;2023-01-15T14:33:07;5.00;99.90
2030;DHT22;1020;48.854;8.830;2023-01-15T14:35:42;5.10;1.00
2030;DHT22;1020;48.854;8.830;2023-01-15T14:38:14;4.90;99.90
2030;DHT22;1020;48.854;8.830;2023-01-15T14:40:52;5.10;1.00
2030;DHT22;1020;48.854;8.830;2023-01-15T14:43:20;5.10;1.00
2030;DHT22;1020;48.854;8.830;2023-01-15T14:45:50;5.10;99.90
2030;DHT22;1020;48.854;8.830;2023-01-15T14:48:18;5.40;99.90
2030;DHT22;1020;48.854;8.830;2023-01-15T14:50:47;5.30;99.90
2030;DHT22;1020;48.854;8.830;2023-01-15T14:53:29;5.10;99.90
2030;DHT22;1020;48.854;8.830;2023-01-15T14:56:02;5.00;99.90
2030;DHT22;1020;48.854;8.830;2023-01-15T14:58:35;4.80;99.90
2030;DHT22;1020;48.854;8.830;2023-01-15T15:01:27;5.00;1.00
2030;DHT22;1020;48.854;8.830;2023-01-15T15:03:57;4.90;29.10
2030;DHT22;1020;48.854;8.830;2023-01-15T15:06:27;4.90;99.90
2030;DHT22;1020;48.854;8.830;2023-01-15T15:08:59;4.60;1.00
2030;DHT22;1020;48.854;8.830;2023-01-15T15:11:34;4.40;99.90
2030;DHT22;1020;48.854;8.830;2023-01-15T15:14:19;4.20;99.90
2030;DHT22;1020;48.854;8.830;2023-01-15T15:16:51;4.10;99.90
2030;DHT22;1020;48.854;8.830;2023-01-15T15:19:25;4.10;99.90
2030;DHT22;1020;48.854;8.830;2023-01-15T15:21:54;4.00;99.90
2030;DHT22;1020;48.854;8.830;2023-01-15T15:24:26;3.90;99.90
2030;DHT22;1020;48.854;8.830;2023-01-15T15:26:54;3.90;1.00
2030;DHT22;1020;48.854;8.830;2023-01-15T15:29:21;3.80;99.90
2030;DHT22;1020;48.854;8.830;2023-01-15T15:31:51;3.80;99.90
2030;DHT22;1020;48.854;8.830;2023-01-15T15:34:25;3.70;1.00
2030;DHT22;1020;48.854;8.830;2023-01-15T15:36:54;3.70;99.90
2030;DHT22;1020;48.854;8.830;2023-01-15T15:39:27;3.70;99.90
2030;DHT22;1020;48.854;8.830;2023-01-15T15:41:56;3.50;1.00
2030;DHT22;1020;48.854;8.830;2023-01-15T15:44:47;3.70;13.40
2030;DHT22;1020;48.854;8.830;2023-01-15T15:47:37;3.60;99.90
2030;DHT22;1020;48.854;8.830;2023-01-15T15:50:23;3.60;1.00
2030;DHT22;1020;48.854;8.830;2023-01-15T15:52:51;3.60;1.00
2030;DHT22;1020;48.854;8.830;2023-01-15T15:55:19;3.50;1.00
2030;DHT22;1020;48.854;8.830;2023-01-15T15:57:47;3.40;99.90
2030;DHT22;1020;48.854;8.830;2023-01-15T16:00:17;3.40;99.90
2030;DHT22;1020;48.854;8.830;2023-01-15T16:02:46;4.50;99.90
2030;DHT22;1020;48.854;8.830;2023-01-15T16:05:21;3.30;99.90
2030;DHT22;1020;48.854;8.830;2023-01-15T16:07:48;3.30;99.90
2030;DHT22;1020;48.854;8.830;2023-01-15T16:10:17;3.30;76.80
2030;DHT22;1020;48.854;8.830;2023-01-15T16:12:45;3.30;1.00
2030;DHT22;1020;48.854;8.830;2023-01-15T16:15:15;3.30;1.00
2030;DHT22;1020;48.854;8.830;2023-01-15T16:17:43;3.40;1.00
2030;DHT22;1020;48.854;8.830;2023-01-15T16:20:14;3.30;99.90
2030;DHT22;1020;48.854;8.830;2023-01-15T16:22:45;3.30;1.00
2030;DHT22;1020;48.854;8.830;2023-01-15T16:25:22;3.30;99.90
2030;DHT22;1020;48.854;8.830;2023-01-15T16:27:49;3.30;1.00
2030;DHT22;1020;48.854;8.830;2023-01-15T16:30:16;3.20;1.00
2030;DHT22;1020;48.854;8.830;2023-01-15T16:32:43;3.20;10.80
2030;DHT22;1020;48.854;8.830;2023-01-15T16:35:16;3.20;99.90
2030;DHT22;1020;48.854;8.830;2023-01-15T16:37:46;3.20;99.90
2030;DHT22;1020;48.854;8.830;2023-01-15T16:40:24;3.10;1.00
2030;DHT22;1020;48.854;8.830;2023-01-15T16:43:01;3.10;99.90
2030;DHT22;1020;48.854;8.830;2023-01-15T16:45:29;3.10;1.00
2030;DHT22;1020;48.854;8.830;2023-01-15T16:48:02;3.10;99.90
2030;DHT22;1020;48.854;8.830;2023-01-15T16:50:36;3.10;97.00
2030;DHT22;1020;48.854;8.830;2023-01-15T16:53:04;3.10;1.00